createdAt,value
2022-11-19T00:00:17.419Z,62
2022-11-19T00:05:17.378Z,62
2022-11-19T00:10:17.305Z,61
2022-11-19T00:15:17.286Z,61
2022-11-19T00:20:17.376Z,61
2022-11-19T00:25:17.482Z,61
2022-11-19T00:30:40.909Z,60
2022-11-19T00:35:17.496Z,61
2022-11-19T00:40:15.429Z,61
2022-11-19T00:45:15.396Z,61
2022-11-19T00:50:15.393Z,61
2022-11-19T00:55:15.491Z,61
2022-11-19T01:00:15.412Z,61
2022-11-19T01:05:15.475Z,61
2022-11-19T01:10:15.478Z,63
2022-11-19T01:15:15.528Z,62
2022-11-19T01:20:15.638Z,61
2022-11-19T01:25:15.512Z,61
2022-11-19T01:30:15.537Z,61
2022-11-19T01:35:15.680Z,62
2022-11-19T01:40:15.505Z,61
2022-11-19T01:45:15.839Z,61
2022-11-19T01:50:15.652Z,61
2022-11-19T01:55:15.560Z,62
2022-11-19T02:00:16.695Z,62
2022-11-19T02:05:16.827Z,63
2022-11-19T02:10:16.596Z,62
2022-11-19T02:15:16.624Z,63
2022-11-19T02:20:17.031Z,62
2022-11-19T02:25:16.549Z,64
2022-11-19T02:30:16.890Z,62
2022-11-19T02:35:16.663Z,63
2022-11-19T02:40:16.592Z,63
2022-11-19T02:45:16.848Z,64
2022-11-19T02:50:16.752Z,63
2022-11-19T02:55:16.812Z,63
2022-11-19T03:00:16.701Z,63
2022-11-19T03:05:16.710Z,64
2022-11-19T03:10:16.751Z,63
2022-11-19T03:15:16.846Z,63
2022-11-19T03:20:16.880Z,62
2022-11-19T03:25:16.757Z,63
2022-11-19T03:30:16.768Z,62
2022-11-19T03:35:16.959Z,63
2022-11-19T03:40:16.956Z,63
2022-11-19T03:45:16.821Z,62
2022-11-19T03:50:16.814Z,62
2022-11-19T03:55:16.728Z,62
2022-11-19T04:00:16.813Z,63
2022-11-19T04:05:17.006Z,63
2022-11-19T04:10:16.909Z,62
2022-11-19T04:15:16.829Z,63
2022-11-19T04:20:16.907Z,63
2022-11-19T04:25:17.081Z,63
2022-11-19T04:30:17.036Z,63
2022-11-19T04:35:16.946Z,63
2022-11-19T04:40:16.944Z,63
2022-11-19T04:45:16.913Z,63
2022-11-19T04:50:16.947Z,64
2022-11-19T04:55:16.929Z,64
2022-11-19T05:00:16.239Z,64
2022-11-19T05:05:16.027Z,64
2022-11-19T05:10:16.132Z,65
2022-11-19T05:15:16.164Z,65
2022-11-19T05:20:15.986Z,65
2022-11-19T05:25:16.176Z,65
2022-11-19T05:30:16.113Z,65
2022-11-19T05:35:16.095Z,65
2022-11-19T05:40:16.037Z,65
2022-11-19T05:45:16.079Z,65
2022-11-19T05:50:16.118Z,66
2022-11-19T05:55:16.062Z,66
2022-11-19T06:00:17.345Z,66
2022-11-19T06:05:17.244Z,66
2022-11-19T06:10:17.137Z,66
2022-11-19T06:15:17.171Z,66
2022-11-19T06:20:17.181Z,66
2022-11-19T06:25:17.144Z,66
2022-11-19T06:30:17.127Z,66
2022-11-19T06:35:17.172Z,66
2022-11-19T06:40:17.361Z,66
2022-11-19T06:45:17.215Z,67
2022-11-19T06:50:17.375Z,67
2022-11-19T06:55:17.260Z,67
2022-11-19T07:00:17.352Z,67
2022-11-19T07:05:17.287Z,68
2022-11-19T07:10:17.293Z,67
2022-11-19T07:15:17.435Z,67
2022-11-19T07:20:17.326Z,68
2022-11-19T07:25:17.291Z,67
2022-11-19T07:30:17.343Z,68
2022-11-19T07:35:17.284Z,68
2022-11-19T07:40:17.292Z,68
2022-11-19T07:45:17.697Z,68
2022-11-19T07:50:17.390Z,68
2022-11-19T07:55:17.304Z,68
2022-11-19T08:00:15.376Z,68
2022-11-19T08:05:15.383Z,68
2022-11-19T08:10:15.398Z,68
2022-11-19T08:15:15.353Z,69
2022-11-19T08:20:15.443Z,69
2022-11-19T08:25:15.635Z,69
2022-11-19T08:30:15.533Z,69
2022-11-19T08:35:15.431Z,69
2022-11-19T08:40:15.511Z,69
2022-11-19T08:45:19.589Z,70
2022-11-19T08:50:15.654Z,70
2022-11-19T08:55:15.480Z,70
2022-11-19T09:00:15.487Z,70
2022-11-19T09:05:15.539Z,71
2022-11-19T09:10:15.545Z,71
2022-11-19T09:15:15.714Z,71
2022-11-19T09:20:15.726Z,71
2022-11-19T09:25:15.591Z,71
2022-11-19T09:30:15.606Z,71
2022-11-19T09:35:15.684Z,72
2022-11-19T09:40:15.663Z,72
2022-11-19T09:45:15.650Z,72
2022-11-19T09:50:15.577Z,72
2022-11-19T09:55:15.489Z,73
2022-11-19T10:00:15.683Z,73
2022-11-19T10:05:15.665Z,73
2022-11-19T10:10:15.719Z,73
2022-11-19T10:15:15.864Z,73
2022-11-19T10:20:15.713Z,74
2022-11-19T10:25:15.688Z,74
2022-11-19T10:30:15.704Z,74
2022-11-19T10:35:15.870Z,74
2022-11-19T10:40:15.724Z,74
2022-11-19T10:45:15.710Z,74
2022-11-19T10:50:15.900Z,74
2022-11-19T10:55:15.807Z,74
2022-11-19T11:00:16.066Z,75
2022-11-19T11:05:15.816Z,75
2022-11-19T11:10:16.183Z,75
2022-11-19T11:15:15.817Z,75
2022-11-19T11:20:15.940Z,75
2022-11-19T11:25:15.953Z,75
2022-11-19T11:30:16.151Z,75
2022-11-19T11:35:16.259Z,75
2022-11-19T11:40:15.963Z,76
2022-11-19T11:45:15.989Z,75
2022-11-19T11:50:15.847Z,75
2022-11-19T11:55:16.086Z,75
2022-11-19T12:00:16.009Z,75
2022-11-19T12:05:16.085Z,75
2022-11-19T12:10:16.009Z,75
2022-11-19T12:15:16.102Z,75
2022-11-19T12:20:16.137Z,76
2022-11-19T12:25:16.008Z,76
2022-11-19T12:30:16.004Z,76
2022-11-19T12:35:16.153Z,75
2022-11-19T12:40:16.003Z,74
2022-11-19T12:45:16.143Z,74
2022-11-19T12:50:16.205Z,74
2022-11-19T12:55:16.179Z,73
2022-11-19T13:00:16.199Z,72
2022-11-19T13:05:16.097Z,72
2022-11-19T13:10:16.005Z,71
2022-11-19T13:15:16.245Z,71
2022-11-19T13:20:16.368Z,71
2022-11-19T13:25:16.182Z,71
2022-11-19T13:30:16.120Z,69
2022-11-19T13:35:16.174Z,69
2022-11-19T13:40:16.197Z,69
2022-11-19T13:45:16.098Z,68
2022-11-19T13:50:16.166Z,68
2022-11-19T13:55:16.391Z,68
2022-11-19T14:00:16.141Z,68
2022-11-19T14:05:16.334Z,67
2022-11-19T14:10:16.205Z,67
2022-11-19T14:15:16.216Z,66
2022-11-19T14:20:16.224Z,67
2022-11-19T14:25:16.340Z,66
2022-11-19T14:30:16.278Z,66
2022-11-19T14:35:16.382Z,65
2022-11-19T14:40:16.357Z,65
2022-11-19T14:45:16.250Z,66
2022-11-19T14:50:16.434Z,62
2022-11-19T14:55:16.384Z,64
2022-11-19T15:00:16.392Z,63
2022-11-19T15:05:16.400Z,61
2022-11-19T15:10:16.289Z,63
2022-11-19T15:15:16.368Z,63
2022-11-19T15:20:16.367Z,62
2022-11-19T15:25:16.486Z,61
2022-11-19T15:30:16.361Z,59
2022-11-19T15:35:16.421Z,60
2022-11-19T15:40:16.826Z,59
2022-11-19T15:45:16.417Z,58
2022-11-19T15:50:16.431Z,58
2022-11-19T15:55:16.536Z,57
2022-11-19T16:00:16.774Z,57
2022-11-19T16:05:16.646Z,56
2022-11-19T16:10:16.681Z,55
2022-11-19T16:15:16.539Z,55
2022-11-19T16:20:16.682Z,54
2022-11-19T16:25:16.682Z,53
2022-11-19T16:30:16.483Z,53
2022-11-19T16:35:16.592Z,53
2022-11-19T16:40:16.539Z,53
2022-11-19T16:45:16.536Z,55
2022-11-19T16:50:16.682Z,53
2022-11-19T16:55:16.566Z,54
2022-11-19T17:00:16.575Z,52
2022-11-19T17:05:16.618Z,51
2022-11-19T17:10:21.187Z,51
2022-11-19T17:15:16.671Z,54
2022-11-19T17:20:16.669Z,51
2022-11-19T17:25:16.702Z,50
2022-11-19T17:30:16.806Z,54
2022-11-19T17:35:17.463Z,53
2022-11-19T17:40:16.779Z,54
2022-11-19T17:45:16.675Z,51
2022-11-19T17:50:16.662Z,54
2022-11-19T17:55:16.663Z,58
2022-11-19T18:00:16.779Z,56
2022-11-19T18:05:16.823Z,55
2022-11-19T18:10:16.836Z,55
2022-11-19T18:15:17.006Z,55
2022-11-19T18:20:16.807Z,55
2022-11-19T18:25:16.778Z,55
2022-11-19T18:30:16.817Z,54
2022-11-19T18:35:16.893Z,55
2022-11-19T18:40:17.036Z,54
2022-11-19T18:45:16.820Z,57
2022-11-19T18:50:16.883Z,56
2022-11-19T18:55:16.876Z,55
2022-11-19T19:00:17.075Z,56
2022-11-19T19:05:17.015Z,55
2022-11-19T19:10:16.895Z,57
2022-11-19T19:15:17.133Z,56
2022-11-19T19:20:16.944Z,54
2022-11-19T19:25:17.056Z,54
2022-11-19T19:30:16.992Z,53
2022-11-19T19:35:17.064Z,53
2022-11-19T19:40:16.946Z,55
2022-11-19T19:45:16.956Z,55
2022-11-19T19:50:17.025Z,56
2022-11-19T19:55:16.911Z,54
2022-11-19T20:00:16.965Z,53
2022-11-19T20:05:17.125Z,53
2022-11-19T20:10:17.082Z,52
2022-11-19T20:15:17.087Z,54
2022-11-19T20:20:17.061Z,54
2022-11-19T20:25:17.035Z,53
2022-11-19T20:30:17.147Z,54
2022-11-19T20:35:17.182Z,55
2022-11-19T20:40:17.074Z,54
2022-11-19T20:45:17.132Z,54
2022-11-19T20:50:17.120Z,55
2022-11-19T20:55:17.176Z,55
2022-11-19T21:00:17.140Z,56
2022-11-19T21:05:17.166Z,56
2022-11-19T21:10:17.417Z,57
2022-11-19T21:15:17.200Z,55
2022-11-19T21:20:17.152Z,55
2022-11-19T21:25:17.254Z,57
2022-11-19T21:30:17.187Z,57
2022-11-19T21:35:17.300Z,58
2022-11-19T21:40:17.260Z,59
2022-11-19T21:45:17.245Z,60
2022-11-19T21:50:17.344Z,60
2022-11-19T21:55:17.251Z,61
2022-11-19T22:00:17.286Z,61
2022-11-19T22:05:17.296Z,62
2022-11-19T22:10:17.377Z,63
2022-11-19T22:15:17.318Z,63
2022-11-19T22:20:17.315Z,63
2022-11-19T22:25:17.313Z,63
2022-11-19T22:30:17.431Z,62
2022-11-19T22:35:17.379Z,62
2022-11-19T22:40:17.390Z,63
2022-11-19T22:45:17.419Z,62
2022-11-19T22:50:15.455Z,63
2022-11-19T22:55:15.395Z,65
2022-11-19T23:00:15.362Z,66
2022-11-19T23:05:15.376Z,66
2022-11-19T23:10:15.464Z,66
2022-11-19T23:15:15.600Z,66
2022-11-19T23:20:15.548Z,65
2022-11-19T23:25:15.780Z,64
2022-11-19T23:30:15.600Z,64
2022-11-19T23:35:15.567Z,64
2022-11-19T23:40:15.524Z,63
2022-11-19T23:45:15.682Z,63
2022-11-19T23:50:15.531Z,63
2022-11-19T23:55:15.485Z,63
